Station: Bushy Park  

  Atmospheric Gas Attenuation - ITU Rec 676-11   ----------------- dB/100km -----------------
Date Time Temp RH % AH g/m3 Dew Point Wind Direction Speed kph Gust kph Barometer mB Rainfall Since 9am 24GHz 47GHz 76GHz 122GHz 134GHz 241GHz
08/05 12:30 13.1 66 7.53 6.9 15 28 1013.1 0 17.3 24.4 35.9 94.0 85.3 292.5
08/05 12:20 12.8 67 7.51 6.8 13 20 1013.1 0 17.3 24.4 36.0 94.2 85.4 292.7
08/05 12:10 12.8 66 7.39 6.6 17 20 1013.1 0 17.1 24.2 35.5 92.9 83.8 287.3
08/05 12:00 12.7 66 7.35 6.5 17 32 1013.1 0 17.0 24.2 35.4 92.6 83.4 285.9
08/05 11:50 12.9 65 7.33 6.5 13 17 1013.1 0 16.9 24.1 35.2 92.2 83.0 284.3
08/05 11:40 12.9 65 7.33 6.5 17 20 1013.1 0 16.9 24.1 35.2 92.2 83.0 284.3
08/05 11:30 12.8 64 7.17 6.2 17 28 1013.1 0 16.6 23.9 34.6 90.7 81.0 277.5
08/05 11:20 13.2 64 7.35 6.5 15 19 1013.1 0 16.9 24.1 35.2 92.0 82.9 284.1
08/05 11:10 12.7 64 7.13 6.1 15 19 1013.1 0 16.5 23.9 34.5 90.4 80.6 276.1
08/05 11:00 13.1 62 7.08 6 20 35 1013.1 0 16.4 23.7 34.2 89.4 79.6 272.5
08/05 10:50 13.6 64 7.53 6.9 22 26 1013.1 0 17.3 24.2 35.7 93.4 84.7 290.7
08/05 10:40 12.7 65 7.24 6.3 15 20 1013.1 0 16.7 24.0 34.9 91.5 82.0 281.0
08/05 10:30 12.9 63 7.1 6 22 39 1013.1 0 16.4 23.8 34.3 89.8 80.0 274.0
08/05 10:20 13.6 60 7.06 6 19 22 1013.1 0 16.3 23.5 33.9 88.6 78.8 269.9
08/05 10:10 13.3 63 7.28 6.4 15 17 1013.1 0 16.8 23.9 34.8 91.2 81.9 280.6
08/05 10:00 13.3 64 7.39 6.6 15 28 1013.1 0 17.0 24.1 35.3 92.3 83.3 285.5
08/05 09:50 13.4 65 7.56 7 15 24 1013.1 0 17.4 24.3 35.9 94.0 85.3 292.7
08/05 09:40 12.7 65 7.24 6.3 17 22 1013.1 0 16.7 24.0 34.9 91.5 82.0 281.0
08/05 09:30 12.7 70 7.79 7.4 15 26 1013.1 0 17.9 24.9 37.1 97.2 89.1 305.8
08/05 09:20 12.2 69 7.45 6.7 11 13 1013.1 0 17.2 24.5 36.0 94.3 85.2 292.2
08/05 09:10 11.9 70 7.41 6.6 11 15 1013.1 0 17.1 24.5 36.0 94.2 85.1 291.5
08/05 09:00 12.1 70 7.51 6.8 15 26 1013.1 0 17.3 24.6 36.3 95.0 86.1 295.3
08/05 08:50 11.6 69 7.17 6.1 15 19 1013.1 1.8 16.6 24.2 35.2 92.0 82.3 281.7
08/05 08:40 11.7 72 7.53 6.8 13 15 1013.1 1.8 17.4 24.8 36.5 95.7 86.8 297.7
08/05 08:30 11 74 7.41 6.6 17 32 1013.1 1.8 17.2 24.8 36.4 95.3 86.0 294.8
08/05 08:20 10.5 75 7.28 6.3 17 22 1013.1 1.8 16.9 24.7 36.1 94.5 84.9 290.7
08/05 08:10 10.4 74 7.13 6 13 17 1013.1 1.8 16.6 24.5 35.5 93.0 83.0 284.2
08/05 08:00 10.2 75 7.14 6 15 24 1013.1 1.8 16.6 24.6 35.7 93.4 83.4 285.4
08/05 07:50 10.2 73 6.95 5.6 11 17 1013.1 1.8 16.2 24.2 34.9 91.3 80.9 276.7
08/05 07:40 10.1 75 7.09 5.9 17 20 1013.1 1.8 16.5 24.5 35.5 92.9 82.8 283.4
08/05 07:30 10.1 74 7 5.7 15 26 1013.1 1.8 16.3 24.4 35.1 92.0 81.6 279.3
08/05 07:20 10.1 74 7 5.7 17 22 1013.1 1.8 16.3 24.4 35.1 92.0 81.6 279.3
08/05 07:10 10.1 74 7 5.7 19 22 1013.1 1.8 16.3 24.4 35.1 92.0 81.6 279.3
08/05 07:00 9.6 76 6.96 5.6 13 19 1013.1 1.8 16.3 24.4 35.2 92.2 81.6 279.2
08/05 06:50 9.2 78 6.97 5.6 22 26 1013.1 1.8 16.3 24.6 35.4 92.7 82.2 281.1
08/05 06:40 9.2 78 6.97 5.6 15 19 1013.1 1.8 16.3 24.6 35.4 92.7 82.2 281.1
08/05 06:30 9.1 79 7.01 5.7 9 13 1013.1 1.8 16.4 24.6 35.6 93.3 82.8 283.3
08/05 06:20 9.7 77 7.1 5.9 11 15 1013.1 1.8 16.6 24.6 35.7 93.5 83.4 285.3
08/05 06:10 10 76 7.14 6 7 9 1013.1 1.8 16.6 24.6 35.7 93.6 83.6 286.1
08/05 06:00 10.2 75 7.14 6 11 30 1013.1 1.8 16.6 24.6 35.7 93.4 83.4 285.4
08/05 05:50 10.2 75 7.14 6 11 13 1013.1 1.8 16.6 24.6 35.7 93.4 83.4 285.4
08/05 05:40 9.9 76 7.1 5.9 13 19 1013.1 1.8 16.6 24.6 35.6 93.3 83.2 284.6
08/05 05:30 10 77 7.24 6.2 13 19 1013.1 1.8 16.8 24.8 36.1 94.7 84.9 290.7
08/05 05:20 9.9 78 7.28 6.2 9 13 1013.1 1.8 16.9 24.9 36.4 95.2 85.5 293.0
08/05 05:10 9.9 78 7.28 6.2 7 9 1013.1 1.8 16.9 24.9 36.4 95.2 85.5 293.0
08/05 05:00 9.7 79 7.29 6.2 6 9 1013.1 1.8 17.0 24.9 36.5 95.6 85.9 294.2
08/05 04:50 10.2 75 7.14 6 7 7 1013.1 1.8 16.6 24.6 35.7 93.4 83.4 285.4
08/05 04:40 10 77 7.24 6.2 7 13 1013.1 1.8 16.8 24.8 36.1 94.7 84.9 290.7
08/05 04:30 10 77 7.24 6.2 13 20 1013.1 1.8 16.8 24.8 36.1 94.7 84.9 290.7
08/05 04:20 10 78 7.33 6.3 9 11 1013.1 1.8 17.0 24.9 36.5 95.6 86.1 294.9
08/05 04:10 9.9 77 7.19 6.1 9 11 1013.1 1.8 16.7 24.7 36.0 94.3 84.4 288.8
08/05 04:00 10.2 75 7.14 6 17 33 1013.1 1.8 16.6 24.6 35.7 93.4 83.4 285.4
08/05 03:50 10.2 74 7.04 5.8 22 28 1013.1 1.8 16.4 24.4 35.3 92.3 82.1 280.8
08/05 03:40 10.2 75 7.14 6 15 17 1013.1 1.8 16.6 24.6 35.7 93.4 83.4 285.4
08/05 03:30 10 79 7.43 6.5 15 28 1013.1 1.8 17.3 25.1 36.9 96.7 87.4 299.6
08/05 03:20 10 81 7.61 6.9 17 22 1013.1 1.6 17.6 25.4 37.6 98.7 89.8 308.0
08/05 03:10 10.3 81 7.76 7.2 13 24 1013.1 1.6 18.0 25.5 38.1 99.9 91.5 313.8
08/05 03:00 10.4 78 7.52 6.7 13 26 1013.1 1.6 17.4 25.1 37.1 97.2 88.2 302.2
08/05 02:50 10.5 78 7.57 6.8 13 17 1013.1 1.6 17.5 25.2 37.2 97.6 88.7 304.2
08/05 02:40 10.3 80 7.66 7 11 17 1013.1 1.6 17.7 25.4 37.7 98.8 90.1 309.1
08/05 02:30 10.6 79 7.71 7.1 11 17 1013.1 1.6 17.8 25.4 37.8 99.0 90.5 310.3
08/05 02:20 10.4 79 7.62 6.9 9 13 1013.1 1.6 17.6 25.3 37.5 98.3 89.5 306.9
08/05 02:10 10.6 79 7.71 7.1 11 24 1013.1 1.6 17.8 25.4 37.8 99.0 90.5 310.3
08/05 02:00 10.5 79 7.66 7 17 33 1013.1 1.6 17.7 25.3 37.6 98.6 89.9 308.4
08/05 01:50 10.6 80 7.81 7.3 15 19 1013.1 1.6 18.0 25.5 38.2 100.1 91.8 315.0
08/05 01:40 10.6 80 7.81 7.3 11 15 1013.1 1.6 18.0 25.5 38.2 100.1 91.8 315.0
08/05 01:30 10.3 83 7.95 7.5 15 30 1013.1 1.6 18.4 25.8 38.9 102.0 94.1 322.8
08/05 01:20 10.2 84 8 7.6 11 13 1013.1 1.6 18.5 26.0 39.1 102.7 94.9 325.6
08/05 01:10 10.2 84 8 7.6 11 15 1013.1 1.4 18.5 26.0 39.1 102.7 94.9 325.6
08/05 01:00 9.6 88 8.06 7.7 13 22 1013.1 1.4 18.6 26.2 39.7 104.1 96.4 331.0
08/05 00:50 9.8 91 8.45 8.4 9 11 1013.1 1.4 19.5 26.8 41.2 108.2 101.5 348.9
08/05 00:40 6.5 96 7.2 5.9 15 19 1013.1 1.4 16.9 25.7 37.6 98.6 88.3 302.1
08/05 00:30 6.7 96 7.3 6.1 9 17 1013.1 1.4 17.1 25.8 37.9 99.4 89.4 306.2
08/05 00:20 6.8 96 7.35 6.2 13 17 1013.1 1.4 17.2 25.9 38.1 99.9 90.0 308.2
08/05 00:10 6.6 96 7.25 6 13 19 1013.1 1.4 17.0 25.8 37.8 99.0 88.9 304.1
08/05 00:00 6.9 96 7.39 6.3 13 35 1013.1 1.4 17.3 25.9 38.2 100.2 90.5 309.7
07/05 23:50 6.6 96 7.25 6 9 11 1013.1 1.4 17.0 25.8 37.8 99.0 88.9 304.1
07/05 23:40 6.8 96 7.35 6.2 9 11 1013.1 1.2 17.2 25.9 38.1 99.9 90.0 308.2
07/05 23:30 6.6 96 7.25 6 9 13 1013.1 1.2 17.0 25.8 37.8 99.0 88.9 304.1
07/05 23:20 6.5 95 7.13 5.8 9 9 1013.1 1.2 16.8 25.6 37.3 97.8 87.3 298.7
07/05 23:10 6.9 96 7.39 6.3 6 7 1013.1 1.2 17.3 25.9 38.2 100.2 90.5 309.7
07/05 23:00 6.7 96 7.3 6.1 6 9 1013.1 1.2 17.1 25.8 37.9 99.4 89.4 306.2
07/05 22:50 6.8 96 7.35 6.2 11 11 1013.1 1.2 17.2 25.9 38.1 99.9 90.0 308.2
07/05 22:40 6.5 96 7.2 5.9 7 7 1013.1 1.2 16.9 25.7 37.6 98.6 88.3 302.1
07/05 22:30 6.3 95 7.04 5.6 9 13 1013.1 1.2 16.6 25.5 37.0 97.0 86.3 295.1
07/05 22:20 6.5 92 6.9 5.3 9 9 1013.1 1.2 16.3 25.2 36.4 95.2 84.2 287.6
07/05 22:10 7.2 93 7.3 6.1 11 13 1013.1 1.2 17.1 25.7 37.7 98.8 88.9 304.2
07/05 22:00 7.4 93 7.4 6.3 9 11 1013.1 1.2 17.3 25.8 38.0 99.6 90.0 308.2
07/05 21:50 7.3 93 7.35 6.2 7 7 1013.1 1.2 17.2 25.7 37.9 99.2 89.4 306.2
07/05 21:40 7.5 92 7.37 6.3 4 7 1013.1 1 17.2 25.7 37.8 99.2 89.5 306.4
07/05 21:30 7.4 91 7.24 6 11 15 1013.1 1 17.0 25.5 37.4 97.9 87.8 300.5
07/05 21:20 7.4 90 7.16 5.9 11 11 1013.1 0.8 16.8 25.4 37.0 97.0 86.7 296.7
07/05 21:10 7.1 91 7.1 5.7 7 9 1013.1 0.8 16.7 25.4 36.9 96.7 86.2 295.0
07/05 21:00 7.2 89 6.99 5.5 11 19 1013.1 0.8 16.4 25.1 36.4 95.3 84.6 289.3
07/05 20:50 7.1 93 7.26 6 13 15 1013.1 0.8 17.0 25.6 37.6 98.5 88.4 302.7
07/05 20:40 6.6 90 6.8 5.1 19 20 1013.1 0.6 16.0 25.0 35.9 94.0 82.7 282.5
07/05 20:30 6.7 89 6.77 5 17 22 1013.1 0.6 16.0 24.9 35.7 93.5 82.2 280.7
07/05 20:20 7 89 6.9 5.3 15 17 1013.1 0.6 16.2 25.0 36.1 94.6 83.6 285.8
07/05 20:10 7.1 87 6.79 5.1 11 11 1013.1 0.6 16.0 24.8 35.6 93.3 82.0 280.2
07/05 20:00 7.3 85 6.72 5 13 20 1013.1 0.4 15.8 24.7 35.3 92.3 80.9 276.2

Last Refresh: 08-May-2026 12:07:29

Bureau of Meteorology